sensor_id;sensor_type;location;lat;lon;timestamp;pressure;altitude;pressure_sealevel;temperature;humidity
29359;BME280;16347;53.232;6.556;2022-10-16T00:01:25;100773.53;;;14.88;69.80
29359;BME280;16347;53.232;6.556;2022-10-16T00:03:55;100771.03;;;14.64;70.34
29359;BME280;16347;53.232;6.556;2022-10-16T00:06:23;100771.91;;;14.65;70.54
29359;BME280;16347;53.232;6.556;2022-10-16T00:08:52;100775.13;;;14.68;70.61
29359;BME280;16347;53.232;6.556;2022-10-16T00:11:22;100765.91;;;14.84;70.17
29359;BME280;16347;53.232;6.556;2022-10-16T00:13:54;100773.81;;;14.79;70.06
29359;BME280;16347;53.232;6.556;2022-10-16T00:16:23;100767.94;;;14.82;70.07
29359;BME280;16347;53.232;6.556;2022-10-16T00:18:51;100771.00;;;14.87;70.06
29359;BME280;16347;53.232;6.556;2022-10-16T00:21:24;100769.28;;;14.86;70.02
29359;BME280;16347;53.232;6.556;2022-10-16T00:24:10;100778.81;;;14.75;70.31
29359;BME280;16347;53.232;6.556;2022-10-16T00:26:39;100776.84;;;14.84;70.30
29359;BME280;16347;53.232;6.556;2022-10-16T00:29:09;100764.09;;;14.76;70.42
29359;BME280;16347;53.232;6.556;2022-10-16T00:31:37;100762.47;;;14.82;69.83
29359;BME280;16347;53.232;6.556;2022-10-16T00:34:05;100768.03;;;14.59;71.09
29359;BME280;16347;53.232;6.556;2022-10-16T00:36:33;100775.13;;;14.54;71.03
29359;BME280;16347;53.232;6.556;2022-10-16T00:39:01;100769.84;;;14.67;70.96
29359;BME280;16347;53.232;6.556;2022-10-16T00:41:29;100768.50;;;14.63;70.81
29359;BME280;16347;53.232;6.556;2022-10-16T00:43:58;100759.94;;;14.80;70.68
29359;BME280;16347;53.232;6.556;2022-10-16T00:46:40;100759.75;;;14.82;70.53
29359;BME280;16347;53.232;6.556;2022-10-16T00:49:10;100756.25;;;14.88;70.37
29359;BME280;16347;53.232;6.556;2022-10-16T00:51:40;100754.47;;;14.80;70.04
29359;BME280;16347;53.232;6.556;2022-10-16T00:54:10;100760.31;;;14.92;70.02
29359;BME280;16347;53.232;6.556;2022-10-16T00:56:39;100757.38;;;14.79;70.36
29359;BME280;16347;53.232;6.556;2022-10-16T00:59:14;100760.31;;;14.92;69.93
29359;BME280;16347;53.232;6.556;2022-10-16T01:01:46;100765.97;;;14.76;70.41
29359;BME280;16347;53.232;6.556;2022-10-16T01:04:14;100755.38;;;14.87;69.91
29359;BME280;16347;53.232;6.556;2022-10-16T01:06:47;100751.06;;;14.93;70.04
29359;BME280;16347;53.232;6.556;2022-10-16T01:09:23;100743.97;;;14.69;70.03
29359;BME280;16347;53.232;6.556;2022-10-16T01:12:03;100749.91;;;14.87;70.08
29359;BME280;16347;53.232;6.556;2022-10-16T01:14:40;100751.44;;;14.90;69.67
29359;BME280;16347;53.232;6.556;2022-10-16T01:17:16;100759.19;;;14.86;69.76
29359;BME280;16347;53.232;6.556;2022-10-16T01:20:00;100754.56;;;14.87;69.75
29359;BME280;16347;53.232;6.556;2022-10-16T01:22:37;100750.78;;;14.88;69.52
29359;BME280;16347;53.232;6.556;2022-10-16T01:25:12;100756.53;;;14.93;69.54
29359;BME280;16347;53.232;6.556;2022-10-16T01:27:46;100764.38;;;14.96;69.21
29359;BME280;16347;53.232;6.556;2022-10-16T01:30:18;100754.84;;;14.92;69.21
29359;BME280;16347;53.232;6.556;2022-10-16T01:32:50;100756.16;;;14.81;69.35
29359;BME280;16347;53.232;6.556;2022-10-16T01:35:24;100764.94;;;14.77;69.46
29359;BME280;16347;53.232;6.556;2022-10-16T01:37:55;100769.00;;;14.66;70.32
29359;BME280;16347;53.232;6.556;2022-10-16T01:40:27;100766.81;;;14.76;69.77
29359;BME280;16347;53.232;6.556;2022-10-16T01:43:00;100760.59;;;14.82;69.66
29359;BME280;16347;53.232;6.556;2022-10-16T01:45:32;100755.28;;;14.81;69.36
29359;BME280;16347;53.232;6.556;2022-10-16T01:48:02;100764.53;;;14.65;69.59
29359;BME280;16347;53.232;6.556;2022-10-16T01:50:39;100769.28;;;14.86;69.25
29359;BME280;16347;53.232;6.556;2022-10-16T01:53:13;100768.91;;;15.04;68.65
29359;BME280;16347;53.232;6.556;2022-10-16T01:55:48;100759.84;;;14.88;68.89
29359;BME280;16347;53.232;6.556;2022-10-16T01:58:22;100767.00;;;14.75;68.99
29359;BME280;16347;53.232;6.556;2022-10-16T02:00:54;100756.72;;;14.77;69.02
29359;BME280;16347;53.232;6.556;2022-10-16T02:03:27;100761.44;;;14.83;68.52
29359;BME280;16347;53.232;6.556;2022-10-16T02:05:58;100759.66;;;14.90;68.20
29359;BME280;16347;53.232;6.556;2022-10-16T02:08:30;100765.31;;;15.03;68.09
29359;BME280;16347;53.232;6.556;2022-10-16T02:11:00;100765.41;;;14.95;67.91
29359;BME280;16347;53.232;6.556;2022-10-16T02:13:33;100768.81;;;14.82;68.23
29359;BME280;16347;53.232;6.556;2022-10-16T02:16:03;100772.19;;;14.84;68.08
29359;BME280;16347;53.232;6.556;2022-10-16T02:18:32;100758.88;;;14.81;67.98
29359;BME280;16347;53.232;6.556;2022-10-16T02:21:02;100763.25;;;14.91;68.00
29359;BME280;16347;53.232;6.556;2022-10-16T02:23:37;100765.69;;;15.00;67.80
29359;BME280;16347;53.232;6.556;2022-10-16T02:26:13;100774.56;;;15.02;67.76
29359;BME280;16347;53.232;6.556;2022-10-16T02:28:44;100765.31;;;15.03;67.83
29359;BME280;16347;53.232;6.556;2022-10-16T02:31:18;100773.25;;;14.98;67.39
29359;BME280;16347;53.232;6.556;2022-10-16T02:33:47;100768.13;;;15.24;67.31
29359;BME280;16347;53.232;6.556;2022-10-16T02:36:17;100764.56;;;15.09;66.99
29359;BME280;16347;53.232;6.556;2022-10-16T02:38:45;100759.16;;;15.01;67.26
29359;BME280;16347;53.232;6.556;2022-10-16T02:41:14;100760.09;;;15.08;67.23
29359;BME280;16347;53.232;6.556;2022-10-16T02:43:43;100762.94;;;15.15;66.93
29359;BME280;16347;53.232;6.556;2022-10-16T02:46:11;100761.53;;;15.04;66.74
29359;BME280;16347;53.232;6.556;2022-10-16T02:48:39;100772.69;;;15.17;66.62
29359;BME280;16347;53.232;6.556;2022-10-16T02:51:07;100769.47;;;15.14;66.52
29359;BME280;16347;53.232;6.556;2022-10-16T02:53:35;100782.03;;;14.94;67.39
29359;BME280;16347;53.232;6.556;2022-10-16T02:56:03;100793.09;;;15.00;66.99
29359;BME280;16347;53.232;6.556;2022-10-16T02:58:31;100781.28;;;15.00;66.92
29359;BME280;16347;53.232;6.556;2022-10-16T03:01:01;100776.28;;;15.03;66.78
29359;BME280;16347;53.232;6.556;2022-10-16T03:03:29;100779.09;;;15.10;66.55
29359;BME280;16347;53.232;6.556;2022-10-16T03:05:57;100781.94;;;15.02;66.44
29359;BME280;16347;53.232;6.556;2022-10-16T03:08:25;100789.50;;;15.00;66.75
29359;BME280;16347;53.232;6.556;2022-10-16T03:10:53;100787.78;;;14.84;66.75
29359;BME280;16347;53.232;6.556;2022-10-16T03:13:21;100775.50;;;14.80;66.71
29359;BME280;16347;53.232;6.556;2022-10-16T03:15:49;100775.22;;;15.04;66.19
29359;BME280;16347;53.232;6.556;2022-10-16T03:18:18;100772.97;;;14.93;66.03
29359;BME280;16347;53.232;6.556;2022-10-16T03:20:47;100780.59;;;14.98;66.22
29359;BME280;16347;53.232;6.556;2022-10-16T03:23:16;100775.59;;;15.01;65.86
29359;BME280;16347;53.232;6.556;2022-10-16T03:25:45;100792.13;;;14.93;66.22
29359;BME280;16347;53.232;6.556;2022-10-16T03:28:14;100792.88;;;14.87;66.62
29359;BME280;16347;53.232;6.556;2022-10-16T03:30:42;100794.09;;;14.84;66.63
29359;BME280;16347;53.232;6.556;2022-10-16T03:33:12;100792.59;;;14.82;66.57
29359;BME280;16347;53.232;6.556;2022-10-16T03:35:42;100784.28;;;14.75;66.97
29359;BME280;16347;53.232;6.556;2022-10-16T03:38:11;100787.59;;;15.00;66.40
29359;BME280;16347;53.232;6.556;2022-10-16T03:40:42;100789.19;;;14.95;66.40
29359;BME280;16347;53.232;6.556;2022-10-16T03:43:15;100783.53;;;14.81;67.05
29359;BME280;16347;53.232;6.556;2022-10-16T03:45:47;100801.09;;;14.87;67.02
29359;BME280;16347;53.232;6.556;2022-10-16T03:48:21;100794.56;;;14.88;67.06
29359;BME280;16347;53.232;6.556;2022-10-16T03:50:54;100803.94;;;14.94;67.08
29359;BME280;16347;53.232;6.556;2022-10-16T03:53:28;100802.88;;;14.95;67.11
29359;BME280;16347;53.232;6.556;2022-10-16T03:56:00;100805.44;;;14.96;66.83
29359;BME280;16347;53.232;6.556;2022-10-16T03:58:30;100796.75;;;14.93;67.30
29359;BME280;16347;53.232;6.556;2022-10-16T04:01:07;100809.50;;;15.00;66.96
29359;BME280;16347;53.232;6.556;2022-10-16T04:03:36;100803.56;;;14.97;66.88
29359;BME280;16347;53.232;6.556;2022-10-16T04:06:10;100799.69;;;15.06;66.86
29359;BME280;16347;53.232;6.556;2022-10-16T04:08:48;100806.97;;;15.13;66.72
29359;BME280;16347;53.232;6.556;2022-10-16T04:11:17;100806.50;;;15.10;66.63
29359;BME280;16347;53.232;6.556;2022-10-16T04:13:45;100804.41;;;14.97;67.08
29359;BME280;16347;53.232;6.556;2022-10-16T04:16:17;100815.16;;;14.99;67.02
29359;BME280;16347;53.232;6.556;2022-10-16T04:18:50;100809.41;;;14.94;67.31
29359;BME280;16347;53.232;6.556;2022-10-16T04:21:23;100820.28;;;14.87;67.66
29359;BME280;16347;53.232;6.556;2022-10-16T04:24:03;100823.00;;;15.02;67.25
29359;BME280;16347;53.232;6.556;2022-10-16T04:26:40;100827.63;;;15.01;67.41
29359;BME280;16347;53.232;6.556;2022-10-16T04:29:09;100830.66;;;15.06;67.21
29359;BME280;16347;53.232;6.556;2022-10-16T04:31:38;100845.19;;;14.92;67.73
29359;BME280;16347;53.232;6.556;2022-10-16T04:34:10;100844.97;;;14.79;68.13
29359;BME280;16347;53.232;6.556;2022-10-16T04:36:46;100846.56;;;14.73;68.34
29359;BME280;16347;53.232;6.556;2022-10-16T04:39:17;100847.50;;;14.66;68.80
29359;BME280;16347;53.232;6.556;2022-10-16T04:41:50;100846.84;;;14.64;68.86
29359;BME280;16347;53.232;6.556;2022-10-16T04:44:19;100861.94;;;14.60;69.29
29359;BME280;16347;53.232;6.556;2022-10-16T04:46:50;100862.03;;;14.66;69.48
29359;BME280;16347;53.232;6.556;2022-10-16T04:49:21;100863.72;;;14.67;69.32
29359;BME280;16347;53.232;6.556;2022-10-16T04:51:53;100867.50;;;14.66;69.45
29359;BME280;16347;53.232;6.556;2022-10-16T04:54:22;100877.66;;;14.80;69.19
29359;BME280;16347;53.232;6.556;2022-10-16T04:56:50;100880.19;;;14.82;69.32
29359;BME280;16347;53.232;6.556;2022-10-16T04:59:19;100880.34;;;14.66;69.76
29359;BME280;16347;53.232;6.556;2022-10-16T05:01:52;100876.19;;;14.70;70.24
29359;BME280;16347;53.232;6.556;2022-10-16T05:04:23;100878.19;;;14.76;70.07
29359;BME280;16347;53.232;6.556;2022-10-16T05:06:58;100859.00;;;14.61;70.95
29359;BME280;16347;53.232;6.556;2022-10-16T05:09:28;100863.28;;;14.78;70.63
29359;BME280;16347;53.232;6.556;2022-10-16T05:11:58;100865.84;;;14.80;70.71
29359;BME280;16347;53.232;6.556;2022-10-16T05:14:27;100874.16;;;14.86;70.81
29359;BME280;16347;53.232;6.556;2022-10-16T05:16:56;100885.06;;;14.72;70.77
29359;BME280;16347;53.232;6.556;2022-10-16T05:19:25;100883.84;;;14.74;71.30
29359;BME280;16347;53.232;6.556;2022-10-16T05:22:01;100885.75;;;14.74;71.73
29359;BME280;16347;53.232;6.556;2022-10-16T05:24:35;100879.09;;;14.68;71.73
29359;BME280;16347;53.232;6.556;2022-10-16T05:27:04;100880.09;;;14.53;72.33
29359;BME280;16347;53.232;6.556;2022-10-16T05:29:41;100881.03;;;14.82;71.83
29359;BME280;16347;53.232;6.556;2022-10-16T05:32:10;100882.38;;;14.86;71.45
29359;BME280;16347;53.232;6.556;2022-10-16T05:34:39;100885.41;;;14.92;71.31
29359;BME280;16347;53.232;6.556;2022-10-16T05:37:09;100886.44;;;14.91;71.38
29359;BME280;16347;53.232;6.556;2022-10-16T05:39:40;100895.22;;;14.86;71.36
29359;BME280;16347;53.232;6.556;2022-10-16T05:42:09;100896.06;;;14.86;71.60
29359;BME280;16347;53.232;6.556;2022-10-16T05:44:41;100890.66;;;14.78;71.61
29359;BME280;16347;53.232;6.556;2022-10-16T05:47:12;100894.72;;;14.82;71.93
29359;BME280;16347;53.232;6.556;2022-10-16T05:49:43;100892.63;;;14.70;72.35
29359;BME280;16347;53.232;6.556;2022-10-16T05:52:14;100901.22;;;14.67;72.95
29359;BME280;16347;53.232;6.556;2022-10-16T05:54:43;100902.88;;;14.68;72.61
29359;BME280;16347;53.232;6.556;2022-10-16T05:57:12;100901.50;;;14.72;72.18
29359;BME280;16347;53.232;6.556;2022-10-16T05:59:41;100902.63;;;14.77;72.27
29359;BME280;16347;53.232;6.556;2022-10-16T06:02:12;100901.81;;;14.77;72.06
29359;BME280;16347;53.232;6.556;2022-10-16T06:04:41;100911.91;;;14.76;72.15
29359;BME280;16347;53.232;6.556;2022-10-16T06:07:10;100921.50;;;14.72;72.15
29359;BME280;16347;53.232;6.556;2022-10-16T06:09:44;100929.53;;;14.74;72.05
29359;BME280;16347;53.232;6.556;2022-10-16T06:12:16;100928.00;;;14.71;72.13
29359;BME280;16347;53.232;6.556;2022-10-16T06:14:45;100936.53;;;14.76;71.77
29359;BME280;16347;53.232;6.556;2022-10-16T06:17:16;100942.63;;;14.64;72.58
29359;BME280;16347;53.232;6.556;2022-10-16T06:19:45;100932.09;;;14.75;72.42
29359;BME280;16347;53.232;6.556;2022-10-16T06:22:14;100923.81;;;14.61;72.84
29359;BME280;16347;53.232;6.556;2022-10-16T06:24:45;100929.38;;;14.53;73.42
29359;BME280;16347;53.232;6.556;2022-10-16T06:27:14;100934.34;;;14.49;73.35
29359;BME280;16347;53.232;6.556;2022-10-16T06:29:43;100932.81;;;14.47;73.94
29359;BME280;16347;53.232;6.556;2022-10-16T06:32:11;100933.19;;;14.66;73.25
29359;BME280;16347;53.232;6.556;2022-10-16T06:34:39;100931.44;;;14.73;73.10
29359;BME280;16347;53.232;6.556;2022-10-16T06:37:09;100942.88;;;14.77;72.94
29359;BME280;16347;53.232;6.556;2022-10-16T06:39:37;100942.31;;;14.59;73.35
29359;BME280;16347;53.232;6.556;2022-10-16T06:42:07;100944.91;;;14.52;73.98
29359;BME280;16347;53.232;6.556;2022-10-16T06:44:35;100952.34;;;14.44;74.24
29359;BME280;16347;53.232;6.556;2022-10-16T06:47:04;100942.91;;;14.69;73.71
29359;BME280;16347;53.232;6.556;2022-10-16T06:49:33;100973.91;;;14.61;73.56
29359;BME280;16347;53.232;6.556;2022-10-16T06:52:01;100974.00;;;14.53;74.27
29359;BME280;16347;53.232;6.556;2022-10-16T06:54:30;100975.81;;;14.61;73.77
29359;BME280;16347;53.232;6.556;2022-10-16T06:57:09;100957.75;;;14.74;73.63
29359;BME280;16347;53.232;6.556;2022-10-16T06:59:37;100972.56;;;14.57;73.79
29359;BME280;16347;53.232;6.556;2022-10-16T07:02:05;100976.38;;;14.56;74.07
29359;BME280;16347;53.232;6.556;2022-10-16T07:04:35;100974.78;;;14.62;73.76
29359;BME280;16347;53.232;6.556;2022-10-16T07:07:03;101000.31;;;14.54;74.19
29359;BME280;16347;53.232;6.556;2022-10-16T07:09:35;100996.56;;;14.47;74.75
29359;BME280;16347;53.232;6.556;2022-10-16T07:12:04;100997.94;;;14.51;74.63
29359;BME280;16347;53.232;6.556;2022-10-16T07:14:33;100989.09;;;14.41;74.66
29359;BME280;16347;53.232;6.556;2022-10-16T07:17:02;101010.63;;;14.44;74.90
29359;BME280;16347;53.232;6.556;2022-10-16T07:19:30;101025.84;;;14.47;74.85
29359;BME280;16347;53.232;6.556;2022-10-16T07:22:00;101026.63;;;14.55;74.37
29359;BME280;16347;53.232;6.556;2022-10-16T07:24:28;101037.72;;;14.62;73.97
29359;BME280;16347;53.232;6.556;2022-10-16T07:26:56;101037.06;;;14.60;73.82
29359;BME280;16347;53.232;6.556;2022-10-16T07:29:24;101034.78;;;14.32;74.50
29359;BME280;16347;53.232;6.556;2022-10-16T07:31:53;101041.41;;;14.46;74.40
29359;BME280;16347;53.232;6.556;2022-10-16T07:34:21;101051.84;;;14.43;74.29
29359;BME280;16347;53.232;6.556;2022-10-16T07:36:50;101069.13;;;14.43;74.47
29359;BME280;16347;53.232;6.556;2022-10-16T07:39:18;101058.19;;;14.43;74.78
29359;BME280;16347;53.232;6.556;2022-10-16T07:41:46;101057.41;;;14.57;74.74
29359;BME280;16347;53.232;6.556;2022-10-16T07:44:15;101055.53;;;14.58;74.80
29359;BME280;16347;53.232;6.556;2022-10-16T07:46:45;101071.94;;;14.58;74.81
29359;BME280;16347;53.232;6.556;2022-10-16T07:49:14;101063.06;;;14.56;75.40
29359;BME280;16347;53.232;6.556;2022-10-16T07:51:42;101071.81;;;14.51;75.41
29359;BME280;16347;53.232;6.556;2022-10-16T07:54:10;101073.81;;;14.57;75.68
29359;BME280;16347;53.232;6.556;2022-10-16T07:56:38;101078.97;;;14.60;75.38
29359;BME280;16347;53.232;6.556;2022-10-16T07:59:09;101072.44;;;14.61;75.78
29359;BME280;16347;53.232;6.556;2022-10-16T08:01:38;101079.13;;;14.59;75.34
29359;BME280;16347;53.232;6.556;2022-10-16T08:04:06;101081.56;;;14.54;76.00
29359;BME280;16347;53.232;6.556;2022-10-16T08:06:37;101087.50;;;14.57;75.92
29359;BME280;16347;53.232;6.556;2022-10-16T08:09:06;101089.06;;;14.60;75.73
29359;BME280;16347;53.232;6.556;2022-10-16T08:11:35;101094.81;;;14.73;75.32
29359;BME280;16347;53.232;6.556;2022-10-16T08:14:03;101097.63;;;14.57;75.67
29359;BME280;16347;53.232;6.556;2022-10-16T08:16:31;101096.41;;;14.59;75.93
29359;BME280;16347;53.232;6.556;2022-10-16T08:19:00;101113.69;;;14.60;76.17
29359;BME280;16347;53.232;6.556;2022-10-16T08:21:31;101109.38;;;14.65;76.21
29359;BME280;16347;53.232;6.556;2022-10-16T08:24:00;101128.16;;;14.68;75.88
29359;BME280;16347;53.232;6.556;2022-10-16T08:26:28;101132.03;;;14.82;75.42
29359;BME280;16347;53.232;6.556;2022-10-16T08:28:56;101132.44;;;14.71;75.57
29359;BME280;16347;53.232;6.556;2022-10-16T08:31:24;101140.03;;;14.92;75.08
29359;BME280;16347;53.232;6.556;2022-10-16T08:33:53;101127.38;;;14.91;75.42
29359;BME280;16347;53.232;6.556;2022-10-16T08:36:23;101132.88;;;15.13;74.62
29359;BME280;16347;53.232;6.556;2022-10-16T08:38:51;101134.28;;;15.09;74.36
29359;BME280;16347;53.232;6.556;2022-10-16T08:41:53;101129.69;;;15.02;74.51
29359;BME280;16347;53.232;6.556;2022-10-16T08:47:35;101148.53;;;15.27;73.36
29359;BME280;16347;53.232;6.556;2022-10-16T08:50:10;101150.09;;;15.22;73.30
29359;BME280;16347;53.232;6.556;2022-10-16T08:52:41;101151.81;;;15.23;73.30
29359;BME280;16347;53.232;6.556;2022-10-16T08:55:19;101165.28;;;15.32;73.29
29359;BME280;16347;53.232;6.556;2022-10-16T08:57:52;101154.63;;;15.37;72.37
29359;BME280;16347;53.232;6.556;2022-10-16T09:00:21;101168.66;;;15.34;72.18
29359;BME280;16347;53.232;6.556;2022-10-16T09:02:52;101177.59;;;15.36;71.97
29359;BME280;16347;53.232;6.556;2022-10-16T09:05:38;101183.69;;;15.47;72.13
29359;BME280;16347;53.232;6.556;2022-10-16T09:08:17;101186.34;;;15.32;71.90
29359;BME280;16347;53.232;6.556;2022-10-16T09:10:56;101191.38;;;15.20;72.34
29359;BME280;16347;53.232;6.556;2022-10-16T09:13:31;101204.34;;;15.26;72.09
29359;BME280;16347;53.232;6.556;2022-10-16T09:16:14;101199.50;;;15.36;72.46
29359;BME280;16347;53.232;6.556;2022-10-16T09:18:45;101207.31;;;15.48;71.80
29359;BME280;16347;53.232;6.556;2022-10-16T09:21:19;101204.41;;;15.49;71.62
29359;BME280;16347;53.232;6.556;2022-10-16T09:23:50;101206.25;;;15.57;71.66
29359;BME280;16347;53.232;6.556;2022-10-16T09:26:18;101213.44;;;15.58;71.82
29359;BME280;16347;53.232;6.556;2022-10-16T09:28:52;101223.19;;;15.60;72.12
29359;BME280;16347;53.232;6.556;2022-10-16T09:31:22;101224.28;;;15.74;71.79
29359;BME280;16347;53.232;6.556;2022-10-16T09:33:53;101233.03;;;15.92;71.39
29359;BME280;16347;53.232;6.556;2022-10-16T09:36:23;101240.00;;;15.80;71.39
29359;BME280;16347;53.232;6.556;2022-10-16T09:39:02;101238.59;;;15.84;71.23
29359;BME280;16347;53.232;6.556;2022-10-16T09:41:34;101234.69;;;15.78;71.15
29359;BME280;16347;53.232;6.556;2022-10-16T09:44:06;101242.59;;;15.96;70.68
29359;BME280;16347;53.232;6.556;2022-10-16T09:46:43;101267.34;;;15.65;70.67
29359;BME280;16347;53.232;6.556;2022-10-16T09:49:21;101244.19;;;15.90;70.40
29359;BME280;16347;53.232;6.556;2022-10-16T09:51:51;101253.03;;;16.01;70.00
29359;BME280;16347;53.232;6.556;2022-10-16T09:54:21;101246.56;;;15.94;69.47
29359;BME280;16347;53.232;6.556;2022-10-16T09:56:49;101253.53;;;16.04;69.07
29359;BME280;16347;53.232;6.556;2022-10-16T09:59:21;101245.34;;;15.96;69.99
29359;BME280;16347;53.232;6.556;2022-10-16T10:01:51;101244.59;;;16.25;68.88
29359;BME280;16347;53.232;6.556;2022-10-16T10:04:22;101263.31;;;16.21;68.60
29359;BME280;16347;53.232;6.556;2022-10-16T10:06:53;101251.13;;;16.38;68.04
29359;BME280;16347;53.232;6.556;2022-10-16T10:09:24;101248.59;;;16.37;67.94
29359;BME280;16347;53.232;6.556;2022-10-16T10:11:54;101252.56;;;16.12;67.79
29359;BME280;16347;53.232;6.556;2022-10-16T10:14:27;101250.53;;;16.28;67.51
29359;BME280;16347;53.232;6.556;2022-10-16T10:17:11;101261.25;;;16.01;66.83
29359;BME280;16347;53.232;6.556;2022-10-16T10:19:42;101267.72;;;16.08;67.43
29359;BME280;16347;53.232;6.556;2022-10-16T10:22:17;101263.16;;;16.00;67.73
29359;BME280;16347;53.232;6.556;2022-10-16T10:24:55;101286.56;;;16.11;67.35
29359;BME280;16347;53.232;6.556;2022-10-16T10:27:29;101282.16;;;16.24;67.45
29359;BME280;16347;53.232;6.556;2022-10-16T10:30:02;101280.75;;;16.43;67.02
29359;BME280;16347;53.232;6.556;2022-10-16T10:32:38;101272.03;;;16.39;67.07
29359;BME280;16347;53.232;6.556;2022-10-16T10:35:15;101285.94;;;16.61;66.19
29359;BME280;16347;53.232;6.556;2022-10-16T10:37:57;101305.16;;;16.61;65.34
29359;BME280;16347;53.232;6.556;2022-10-16T10:40:42;101300.22;;;16.56;64.36
29359;BME280;16347;53.232;6.556;2022-10-16T10:43:22;101317.41;;;16.50;63.60
29359;BME280;16347;53.232;6.556;2022-10-16T10:45:59;101310.31;;;16.41;62.71
29359;BME280;16347;53.232;6.556;2022-10-16T10:51:31;101313.22;;;16.39;62.56
29359;BME280;16347;53.232;6.556;2022-10-16T10:54:13;101317.59;;;16.71;63.12
29359;BME280;16347;53.232;6.556;2022-10-16T10:56:47;101314.38;;;16.82;62.80
29359;BME280;16347;53.232;6.556;2022-10-16T11:02:29;101322.41;;;16.69;59.88
29359;BME280;16347;53.232;6.556;2022-10-16T11:08:08;101333.72;;;16.52;58.68
29359;BME280;16347;53.232;6.556;2022-10-16T11:10:45;101335.22;;;16.54;59.01
29359;BME280;16347;53.232;6.556;2022-10-16T11:13:43;101360.25;;;16.36;58.07
29359;BME280;16347;53.232;6.556;2022-10-16T11:16:16;101344.25;;;16.40;57.21
29359;BME280;16347;53.232;6.556;2022-10-16T11:18:52;101343.97;;;16.58;58.59
29359;BME280;16347;53.232;6.556;2022-10-16T11:21:24;101331.97;;;16.73;57.91
29359;BME280;16347;53.232;6.556;2022-10-16T11:23:59;101332.19;;;16.86;57.24
29359;BME280;16347;53.232;6.556;2022-10-16T11:26:33;101338.91;;;16.84;57.67
29359;BME280;16347;53.232;6.556;2022-10-16T11:29:05;101343.47;;;17.06;57.80
29359;BME280;16347;53.232;6.556;2022-10-16T11:31:43;101356.94;;;17.01;57.17
29359;BME280;16347;53.232;6.556;2022-10-16T11:34:23;101362.63;;;17.29;58.05
29359;BME280;16347;53.232;6.556;2022-10-16T11:36:56;101345.28;;;17.14;56.13
29359;BME280;16347;53.232;6.556;2022-10-16T11:39:27;101364.31;;;17.30;55.41
29359;BME280;16347;53.232;6.556;2022-10-16T11:41:58;101357.59;;;17.32;54.87
29359;BME280;16347;53.232;6.556;2022-10-16T11:44:41;101363.75;;;17.49;54.28
29359;BME280;16347;53.232;6.556;2022-10-16T11:47:22;101382.53;;;17.46;53.45
29359;BME280;16347;53.232;6.556;2022-10-16T11:50:20;101369.16;;;17.57;54.85
29359;BME280;16347;53.232;6.556;2022-10-16T11:52:55;101366.78;;;17.69;54.45
29359;BME280;16347;53.232;6.556;2022-10-16T11:55:31;101362.47;;;17.96;53.77
29359;BME280;16347;53.232;6.556;2022-10-16T11:58:03;101362.78;;;18.07;52.85
29359;BME280;16347;53.232;6.556;2022-10-16T12:00:39;101378.34;;;17.79;52.16
29359;BME280;16347;53.232;6.556;2022-10-16T12:03:17;101376.31;;;17.87;53.02
29359;BME280;16347;53.232;6.556;2022-10-16T12:05:58;101396.25;;;17.89;52.68
29359;BME280;16347;53.232;6.556;2022-10-16T12:08:33;101397.47;;;17.87;53.03
29359;BME280;16347;53.232;6.556;2022-10-16T12:11:19;101394.84;;;18.15;53.40
29359;BME280;16347;53.232;6.556;2022-10-16T12:13:47;101401.34;;;18.28;53.54
29359;BME280;16347;53.232;6.556;2022-10-16T12:16:23;101404.19;;;17.99;52.88
29359;BME280;16347;53.232;6.556;2022-10-16T12:19:10;101407.25;;;18.25;53.84
29359;BME280;16347;53.232;6.556;2022-10-16T12:21:41;101424.44;;;18.49;53.48
29359;BME280;16347;53.232;6.556;2022-10-16T12:24:31;101420.53;;;18.58;50.27
29359;BME280;16347;53.232;6.556;2022-10-16T12:27:00;101433.09;;;18.45;50.73
29359;BME280;16347;53.232;6.556;2022-10-16T12:29:34;101422.13;;;18.31;49.82
29359;BME280;16347;53.232;6.556;2022-10-16T12:32:04;101425.31;;;18.13;50.90
29359;BME280;16347;53.232;6.556;2022-10-16T12:34:38;101426.91;;;18.22;50.07
29359;BME280;16347;53.232;6.556;2022-10-16T12:37:13;101438.38;;;18.26;51.90
29359;BME280;16347;53.232;6.556;2022-10-16T12:39:42;101438.47;;;18.32;50.70
29359;BME280;16347;53.232;6.556;2022-10-16T12:42:30;101439.81;;;18.22;51.17
29359;BME280;16347;53.232;6.556;2022-10-16T12:45:00;101440.47;;;18.24;51.90
29359;BME280;16347;53.232;6.556;2022-10-16T12:47:37;101446.78;;;18.03;52.76
29359;BME280;16347;53.232;6.556;2022-10-16T12:50:32;101458.00;;;17.87;52.12
29359;BME280;16347;53.232;6.556;2022-10-16T12:53:03;101459.25;;;17.84;51.82
29359;BME280;16347;53.232;6.556;2022-10-16T12:55:40;101466.28;;;17.58;51.63
29359;BME280;16347;53.232;6.556;2022-10-16T13:01:17;101469.41;;;17.69;51.41
29359;BME280;16347;53.232;6.556;2022-10-16T13:07:15;101465.13;;;17.67;51.96
29359;BME280;16347;53.232;6.556;2022-10-16T13:09:56;101469.53;;;17.53;51.47
29359;BME280;16347;53.232;6.556;2022-10-16T13:12:49;101476.13;;;17.67;52.30
29359;BME280;16347;53.232;6.556;2022-10-16T13:15:29;101489.97;;;18.03;51.04
29359;BME280;16347;53.232;6.556;2022-10-16T13:18:10;101484.16;;;18.12;50.15
29359;BME280;16347;53.232;6.556;2022-10-16T13:20:54;101488.25;;;18.16;49.67
29359;BME280;16347;53.232;6.556;2022-10-16T13:23:25;101489.31;;;17.86;49.79
29359;BME280;16347;53.232;6.556;2022-10-16T13:26:06;101499.06;;;18.03;50.29
29359;BME280;16347;53.232;6.556;2022-10-16T13:28:37;101499.84;;;17.82;49.03
29359;BME280;16347;53.232;6.556;2022-10-16T13:31:14;101500.97;;;18.03;49.88
29359;BME280;16347;53.232;6.556;2022-10-16T13:33:47;101508.09;;;18.12;49.46
29359;BME280;16347;53.232;6.556;2022-10-16T13:36:21;101504.53;;;18.32;49.49